sensor_id;sensor_type;location;lat;lon;timestamp;temperature;humidity
41080;DHT22;26826;50.718;7.114;2023-06-14T00:02:08;20.00;80.20
41080;DHT22;26826;50.718;7.114;2023-06-14T00:12:09;19.80;79.50
41080;DHT22;26826;50.718;7.114;2023-06-14T00:22:09;19.70;79.60
41080;DHT22;26826;50.718;7.114;2023-06-14T00:32:10;19.60;80.70
41080;DHT22;26826;50.718;7.114;2023-06-14T00:42:11;19.60;80.70
41080;DHT22;26826;50.718;7.114;2023-06-14T00:52:12;19.60;79.80
41080;DHT22;26826;50.718;7.114;2023-06-14T01:02:13;19.50;82.40
41080;DHT22;26826;50.718;7.114;2023-06-14T01:12:46;19.50;78.10
41080;DHT22;26826;50.718;7.114;2023-06-14T01:22:55;19.50;80.40
41080;DHT22;26826;50.718;7.114;2023-06-14T01:32:56;19.30;81.00
41080;DHT22;26826;50.718;7.114;2023-06-14T01:42:58;19.20;82.10
41080;DHT22;26826;50.718;7.114;2023-06-14T01:52:59;19.00;83.80
41080;DHT22;26826;50.718;7.114;2023-06-14T02:03:00;18.60;82.70
41080;DHT22;26826;50.718;7.114;2023-06-14T02:13:00;18.60;84.30
41080;DHT22;26826;50.718;7.114;2023-06-14T02:23:01;18.50;86.30
41080;DHT22;26826;50.718;7.114;2023-06-14T02:33:02;18.40;87.00
41080;DHT22;26826;50.718;7.114;2023-06-14T02:43:03;18.10;86.70
41080;DHT22;26826;50.718;7.114;2023-06-14T02:53:03;17.80;89.30
41080;DHT22;26826;50.718;7.114;2023-06-14T03:03:04;17.70;90.80
41080;DHT22;26826;50.718;7.114;2023-06-14T03:13:05;17.60;92.80
41080;DHT22;26826;50.718;7.114;2023-06-14T03:23:05;17.50;93.80
41080;DHT22;26826;50.718;7.114;2023-06-14T03:33:06;17.40;95.20
41080;DHT22;26826;50.718;7.114;2023-06-14T03:43:07;17.20;96.90
41080;DHT22;26826;50.718;7.114;2023-06-14T03:53:08;17.20;97.20
41080;DHT22;26826;50.718;7.114;2023-06-14T04:03:08;17.20;97.10
41080;DHT22;26826;50.718;7.114;2023-06-14T04:13:09;17.30;99.50
41080;DHT22;26826;50.718;7.114;2023-06-14T04:23:14;17.20;99.90
41080;DHT22;26826;50.718;7.114;2023-06-14T04:33:15;17.20;99.90
41080;DHT22;26826;50.718;7.114;2023-06-14T04:43:18;17.30;99.90
41080;DHT22;26826;50.718;7.114;2023-06-14T04:53:20;17.40;99.90
41080;DHT22;26826;50.718;7.114;2023-06-14T05:03:23;17.60;99.90
41080;DHT22;26826;50.718;7.114;2023-06-14T05:13:24;17.70;99.90
41080;DHT22;26826;50.718;7.114;2023-06-14T05:23:24;17.70;99.90
41080;DHT22;26826;50.718;7.114;2023-06-14T05:33:25;17.70;99.90
41080;DHT22;26826;50.718;7.114;2023-06-14T05:43:25;17.90;99.90
41080;DHT22;26826;50.718;7.114;2023-06-14T05:53:26;18.20;94.70
41080;DHT22;26826;50.718;7.114;2023-06-14T06:03:26;18.60;92.20
41080;DHT22;26826;50.718;7.114;2023-06-14T06:13:29;19.30;90.70
41080;DHT22;26826;50.718;7.114;2023-06-14T06:23:30;20.10;89.70
41080;DHT22;26826;50.718;7.114;2023-06-14T06:33:30;20.60;88.00
41080;DHT22;26826;50.718;7.114;2023-06-14T06:43:31;21.50;87.00
41080;DHT22;26826;50.718;7.114;2023-06-14T06:53:31;21.80;85.50
41080;DHT22;26826;50.718;7.114;2023-06-14T07:03:32;22.20;85.70
41080;DHT22;26826;50.718;7.114;2023-06-14T07:13:32;22.80;83.50
41080;DHT22;26826;50.718;7.114;2023-06-14T07:23:33;22.40;79.80
41080;DHT22;26826;50.718;7.114;2023-06-14T07:33:34;22.50;79.40
41080;DHT22;26826;50.718;7.114;2023-06-14T07:43:34;22.80;80.30
41080;DHT22;26826;50.718;7.114;2023-06-14T07:53:35;23.70;77.30
41080;DHT22;26826;50.718;7.114;2023-06-14T08:03:35;25.10;76.60
41080;DHT22;26826;50.718;7.114;2023-06-14T08:13:36;24.50;74.00
41080;DHT22;26826;50.718;7.114;2023-06-14T08:23:36;25.30;73.60
41080;DHT22;26826;50.718;7.114;2023-06-14T08:33:38;25.20;70.10
41080;DHT22;26826;50.718;7.114;2023-06-14T08:53:43;26.00;69.00
41080;DHT22;26826;50.718;7.114;2023-06-14T09:03:43;26.50;68.30
41080;DHT22;26826;50.718;7.114;2023-06-14T09:13:49;25.80;65.80
41080;DHT22;26826;50.718;7.114;2023-06-14T09:23:50;27.30;64.20
41080;DHT22;26826;50.718;7.114;2023-06-14T09:33:51;27.40;65.90
41080;DHT22;26826;50.718;7.114;2023-06-14T09:43:51;27.90;64.20
41080;DHT22;26826;50.718;7.114;2023-06-14T09:53:52;29.10;62.40
41080;DHT22;26826;50.718;7.114;2023-06-14T10:04:02;28.20;62.70
41080;DHT22;26826;50.718;7.114;2023-06-14T10:14:05;30.00;62.90
41080;DHT22;26826;50.718;7.114;2023-06-14T10:24:08;30.10;60.30
41080;DHT22;26826;50.718;7.114;2023-06-14T10:34:12;28.70;61.70
41080;DHT22;26826;50.718;7.114;2023-06-14T10:54:14;31.50;59.60
41080;DHT22;26826;50.718;7.114;2023-06-14T11:04:17;30.50;60.30
41080;DHT22;26826;50.718;7.114;2023-06-14T11:14:20;29.70;61.30
41080;DHT22;26826;50.718;7.114;2023-06-14T11:24:21;29.90;60.40
41080;DHT22;26826;50.718;7.114;2023-06-14T11:34:22;30.60;61.10
41080;DHT22;26826;50.718;7.114;2023-06-14T11:44:22;29.70;61.50
41080;DHT22;26826;50.718;7.114;2023-06-14T11:54:24;29.00;61.90
41080;DHT22;26826;50.718;7.114;2023-06-14T12:24:32;31.40;59.30
41080;DHT22;26826;50.718;7.114;2023-06-14T13:14:46;31.50;59.30
41080;DHT22;26826;50.718;7.114;2023-06-14T13:24:47;30.40;59.70
41080;DHT22;26826;50.718;7.114;2023-06-14T14:15:22;29.40;60.60
41080;DHT22;26826;50.718;7.114;2023-06-14T14:25:22;29.90;60.20
41080;DHT22;26826;50.718;7.114;2023-06-14T14:56:08;30.40;60.00
41080;DHT22;26826;50.718;7.114;2023-06-14T15:06:09;29.20;60.70
41080;DHT22;26826;50.718;7.114;2023-06-14T15:16:10;29.30;59.70
41080;DHT22;26826;50.718;7.114;2023-06-14T15:26:10;28.10;61.10
41080;DHT22;26826;50.718;7.114;2023-06-14T15:36:11;27.70;61.80
41080;DHT22;26826;50.718;7.114;2023-06-14T15:46:11;28.00;61.70
41080;DHT22;26826;50.718;7.114;2023-06-14T15:56:12;27.50;62.40
41080;DHT22;26826;50.718;7.114;2023-06-14T16:06:12;28.20;60.30
41080;DHT22;26826;50.718;7.114;2023-06-14T16:16:13;28.20;60.50
41080;DHT22;26826;50.718;7.114;2023-06-14T16:26:15;28.20;60.50
41080;DHT22;26826;50.718;7.114;2023-06-14T16:36:15;27.70;61.30
41080;DHT22;26826;50.718;7.114;2023-06-14T16:46:31;26.70;61.70
41080;DHT22;26826;50.718;7.114;2023-06-14T16:56:31;26.50;63.00
41080;DHT22;26826;50.718;7.114;2023-06-14T17:06:32;27.60;61.80
41080;DHT22;26826;50.718;7.114;2023-06-14T17:16:32;27.80;61.20
41080;DHT22;26826;50.718;7.114;2023-06-14T17:26:33;27.40;61.40
41080;DHT22;26826;50.718;7.114;2023-06-14T17:36:33;28.10;60.10
41080;DHT22;26826;50.718;7.114;2023-06-14T17:46:34;27.30;60.70
41080;DHT22;26826;50.718;7.114;2023-06-14T17:56:35;27.10;61.10
41080;DHT22;26826;50.718;7.114;2023-06-14T18:06:35;26.30;62.70
41080;DHT22;26826;50.718;7.114;2023-06-14T18:16:36;26.50;62.30
41080;DHT22;26826;50.718;7.114;2023-06-14T18:26:36;26.20;62.30
41080;DHT22;26826;50.718;7.114;2023-06-14T18:36:37;26.00;62.30
41080;DHT22;26826;50.718;7.114;2023-06-14T18:46:39;25.80;64.60
41080;DHT22;26826;50.718;7.114;2023-06-14T18:56:40;25.70;64.60
41080;DHT22;26826;50.718;7.114;2023-06-14T19:06:40;25.40;65.70
41080;DHT22;26826;50.718;7.114;2023-06-14T19:16:41;25.00;65.80
41080;DHT22;26826;50.718;7.114;2023-06-14T19:26:42;24.60;66.10
41080;DHT22;26826;50.718;7.114;2023-06-14T19:36:43;24.40;68.30
41080;DHT22;26826;50.718;7.114;2023-06-14T19:46:43;23.90;68.70
41080;DHT22;26826;50.718;7.114;2023-06-14T19:56:44;23.60;69.10
41080;DHT22;26826;50.718;7.114;2023-06-14T20:06:45;23.40;69.00
41080;DHT22;26826;50.718;7.114;2023-06-14T20:16:46;23.10;69.80
41080;DHT22;26826;50.718;7.114;2023-06-14T20:26:46;22.80;70.20
41080;DHT22;26826;50.718;7.114;2023-06-14T20:36:47;22.50;70.60
41080;DHT22;26826;50.718;7.114;2023-06-14T20:58:10;22.00;71.70
41080;DHT22;26826;50.718;7.114;2023-06-14T21:08:10;21.60;73.50
41080;DHT22;26826;50.718;7.114;2023-06-14T21:18:11;21.50;73.20
41080;DHT22;26826;50.718;7.114;2023-06-14T21:28:11;21.40;73.90
41080;DHT22;26826;50.718;7.114;2023-06-14T21:38:12;21.10;74.80
41080;DHT22;26826;50.718;7.114;2023-06-14T21:48:13;21.00;75.70
41080;DHT22;26826;50.718;7.114;2023-06-14T21:58:14;20.70;76.70
41080;DHT22;26826;50.718;7.114;2023-06-14T22:08:15;20.50;77.70
41080;DHT22;26826;50.718;7.114;2023-06-14T22:18:17;20.40;77.40
41080;DHT22;26826;50.718;7.114;2023-06-14T22:28:17;20.20;78.40
41080;DHT22;26826;50.718;7.114;2023-06-14T22:38:18;20.00;80.00
41080;DHT22;26826;50.718;7.114;2023-06-14T22:48:19;19.90;80.50
41080;DHT22;26826;50.718;7.114;2023-06-14T22:58:20;19.50;80.50
41080;DHT22;26826;50.718;7.114;2023-06-14T23:08:25;19.50;81.20
41080;DHT22;26826;50.718;7.114;2023-06-14T23:18:28;19.40;83.00
41080;DHT22;26826;50.718;7.114;2023-06-14T23:28:29;19.30;82.20
41080;DHT22;26826;50.718;7.114;2023-06-14T23:38:34;19.10;84.20
41080;DHT22;26826;50.718;7.114;2023-06-14T23:48:42;18.90;85.30
41080;DHT22;26826;50.718;7.114;2023-06-14T23:58:43;18.90;86.20
